メインページ
METAR-TAF:

METAR-TAF

空港 :

イスラマバード, パキスタン

ベナジル・ブット国際空港

緯度: 33-37N, 経度: 073-06E, 海抜: 507m

現時点の気象観測

当レポートは44分前の14:00(UTC)に作成
南東の風 6kt
気温 31°C
湿度 71%
気圧
視程: 4000m
高度4500ftの雲はほとんどない
高度20000ftの千切れ雲あり
煙霧

METAR: OPRN 271400Z 13006KT 4000 HZ FEW045 BKN200 31/25 1003.5/29.63

時間: 19:44 (14:44 UTC)

予報

当レポートは5時間14分前の09:30(UTC)に作成
予報は27日の 12時(UTC)から 28日の 18時(UTC)まで有効
南東の風 10kt、最大20ktの突風を伴う
視程: 6000m
高度3000ftの雲はほとんどない, 塔状積雲.
高度4000ftの雲は散在している
高度10000ftの雲は散在している
27日の 12時(UTC)から 27日の 18時(UTC)まで一時的に
高度3000ftの雲はほとんどない
高度4000ftの雲は散在している
高度3000ftの雲はほとんどない, 塔状積雲.
高度4000ftの雲は散在している
高度10000ftの雲は散在している
近辺で激しい雷雨, 近辺で激しい雷雨
27日の 20時(UTC)から 28日の 05時(UTC)まで一時的に
東/南東の風 15kt
視程: 2000m
高度3000ftの雲はほとんどない, 積乱雲.
高度4000ftの雲は散在している
高度10000ftの千切れ雲あり

TAF: OPRN 270930Z 2712/2818 13010G20KT 6000 FEW030TCU SCT040 SCT100 TEMPO 2712/2718 VCTS FEW030 SCT040 SCT100TEMPO 2712/2718 VCTS FEW030TCU SCT040 SCT100 TEMPO 2720/2805 12015KTG30KT 2000 TSRA/SH FEW030CB SCT040 BKN100

4,000以上の空港の気象観測と天気予報(METAR報とTAF報)

利用可能な観測所は地図上に黄色い丸と赤い丸で示す。

丸の上にカーソルを重ねると観測所名を参照できる。

次にクリックすると気象観測と天気予報を参照できる。

マップの切り替え:黒色「×」印の緑ボタンをクリックして拡大、「-」印の緑ボタンをクリックして縮小、緑色の三角印をクリックして隣りの地図に切り替え


METAR-TAF: